Time;durP1;ratioP1;P1;durP2;ratioP2;P2;SDS_P1;SDS_P2;PMS_P1;PMS_P2;Temp;Humidity;BMP_temperature;BMP_pressure;BME280_temperature;BME280_humidity;BME280_pressure;Samples;Min_cycle;Max_cycle;Signal;HPM_P1;HPM_P2
2021/08/09 00:00:13;;;;;;;;;1.25;1.25;;;;;22.81;43.86;101068.81;5056539;28;45351;-52
2021/08/09 00:02:38;;;;;;;;;2.00;2.00;;;;;22.79;43.91;101075.97;5056218;28;46679;-51
2021/08/09 00:05:04;;;;;;;;;1.75;1.75;;;;;22.81;44.00;101087.31;5056166;28;45399;-53
2021/08/09 00:07:30;;;;;;;;;1.00;1.00;;;;;22.79;44.08;101086.53;5056880;28;45197;-53
2021/08/09 00:09:55;;;;;;;;;2.00;1.00;;;;;22.81;43.82;101084.66;5060013;28;45596;-45
2021/08/09 00:12:21;;;;;;;;;1.00;1.00;;;;;22.81;43.83;101079.38;5059651;28;46282;-48
2021/08/09 00:14:46;;;;;;;;;0.75;0.75;;;;;22.78;44.06;101076.91;5059442;28;45438;-51
2021/08/09 00:17:11;;;;;;;;;3.50;1.25;;;;;22.79;43.90;101065.41;5058815;28;45356;-49
2021/08/09 00:19:37;;;;;;;;;1.00;1.00;;;;;22.80;43.83;101064.47;5059259;28;45367;-45
2021/08/09 00:22:03;;;;;;;;;1.00;1.00;;;;;22.78;44.30;101061.06;5058620;28;47273;-49
2021/08/09 00:24:28;;;;;;;;;2.00;2.00;;;;;22.78;43.90;101061.06;5058115;28;45143;-59
2021/08/09 00:26:54;;;;;;;;;1.00;1.00;;;;;22.77;44.26;101054.06;5058825;28;45180;-57
2021/08/09 00:29:19;;;;;;;;;1.50;1.25;;;;;22.78;43.90;101058.41;5058821;28;45407;-53
2021/08/09 00:31:45;;;;;;;;;1.00;1.00;;;;;22.76;43.90;101064.75;5058394;28;45469;-46
2021/08/09 00:34:10;;;;;;;;;3.00;1.00;;;;;22.77;44.07;101069.91;5058371;28;45430;-56
2021/08/09 00:36:35;;;;;;;;;2.25;1.00;;;;;22.76;43.86;101073.53;5040240;28;45294;-59
2021/08/09 00:39:01;;;;;;;;;1.00;1.00;;;;;22.77;43.76;101071.72;5058864;28;45581;-57
2021/08/09 00:41:26;;;;;;;;;1.00;1.00;;;;;22.77;44.00;101072.56;5058146;28;47263;-50
2021/08/09 00:43:51;;;;;;;;;2.50;2.50;;;;;22.76;43.80;101073.53;5058377;28;45638;-60
2021/08/09 00:46:17;;;;;;;;;1.00;1.00;;;;;22.76;44.12;101065.59;5058088;28;47009;-54
2021/08/09 00:48:43;;;;;;;;;1.25;1.25;;;;;22.74;44.07;101070.13;5058433;28;45513;-60
2021/08/09 00:51:09;;;;;;;;;2.00;2.00;;;;;22.76;43.68;101073.53;5058045;28;47270;-58
2021/08/09 00:53:35;;;;;;;;;2.00;2.00;;;;;22.77;43.85;101067.28;5058117;28;45247;-58
2021/08/09 00:56:02;;;;;;;;;1.00;1.00;;;;;22.76;43.94;101055.03;5058374;28;45210;-54
2021/08/09 00:58:28;;;;;;;;;1.50;1.00;;;;;22.75;43.94;101055.97;5058302;28;45483;-59
2021/08/09 01:00:53;;;;;;;;;1.25;0.75;;;;;22.75;44.05;101053.34;5057985;28;45301;-64
2021/08/09 01:03:18;;;;;;;;;1.50;1.00;;;;;22.74;44.03;101062.22;5057912;28;45435;-55
2021/08/09 01:05:48;;;;;;;;;2.00;1.50;;;;;22.76;43.77;101065.59;5057987;28;45327;-53
2021/08/09 01:08:22;;;;;;;;;1.00;1.00;;;;;22.75;43.94;101058.63;5058019;28;45442;-59
2021/08/09 01:10:55;;;;;;;;;1.00;1.00;;;;;22.75;43.92;101055.97;5057781;28;46464;-61
2021/08/09 01:13:32;;;;;;;;;1.25;1.25;;;;;22.74;43.75;101049.00;5057834;28;45334;-60
2021/08/09 01:16:20;;;;;;;;;0.00;0.00;;;;;22.74;43.86;101046.34;5018735;28;1118723;-56
2021/08/09 01:18:47;;;;;;;;;2.00;2.00;;;;;22.74;43.99;101046.34;5058656;28;45353;-50
2021/08/09 01:21:17;;;;;;;;;1.25;1.25;;;;;22.74;44.08;101046.34;5058487;28;46587;-56
2021/08/09 01:24:17;;;;;;;;;1.50;1.50;;;;;22.73;44.08;101039.38;5058549;28;45434;-51
2021/08/09 01:26:58;;;;;;;;;1.00;1.00;;;;;22.73;43.94;101039.38;5058637;28;45285;-55
2021/08/09 01:29:32;;;;;;;;;1.00;1.00;;;;;22.72;43.98;101042.94;5058967;28;45433;-45
2021/08/09 01:31:59;;;;;;;;;1.00;1.00;;;;;22.70;44.04;101037.78;5040444;28;48231;-62
2021/08/09 01:34:27;;;;;;;;;1.50;1.50;;;;;22.72;43.98;101048.22;5058114;28;45643;-59
2021/08/09 01:36:55;;;;;;;;;0.75;0.75;;;;;22.71;43.97;101041.25;5058554;28;45340;-52
2021/08/09 01:39:21;;;;;;;;;1.75;1.00;;;;;22.72;43.96;101042.09;5058632;28;45319;-51
2021/08/09 01:41:48;;;;;;;;;3.00;1.00;;;;;22.71;44.02;101046.53;5058319;28;46243;-58
2021/08/09 01:44:14;;;;;;;;;1.25;1.00;;;;;22.70;44.11;101045.69;5058409;28;45649;-49
2021/08/09 01:46:40;;;;;;;;;2.00;2.00;;;;;22.70;44.00;101036.91;5058337;28;45270;-53
2021/08/09 01:49:06;;;;;;;;;1.75;1.00;;;;;22.70;44.10;101045.69;5058896;28;45584;-58
2021/08/09 01:51:34;;;;;;;;;1.00;1.00;;;;;22.70;44.02;101050.13;5058341;28;46504;-60
2021/08/09 01:54:01;;;;;;;;;0.00;0.00;;;;;22.70;43.72;101055.41;5058174;28;45452;-60
2021/08/09 01:56:26;;;;;;;;;2.75;2.00;;;;;22.70;44.05;101055.41;5058220;28;45427;-52
2021/08/09 01:58:52;;;;;;;;;2.25;2.00;;;;;22.70;44.14;101053.63;5058421;28;45360;-56
2021/08/09 02:01:19;;;;;;;;;1.00;1.00;;;;;22.70;44.11;101039.53;5058064;28;46837;-50
2021/08/09 02:03:45;;;;;;;;;2.00;0.75;;;;;22.68;44.13;101039.66;5058092;28;45652;-48
2021/08/09 02:06:10;;;;;;;;;2.25;1.25;;;;;22.68;44.42;101037.00;5058120;28;45259;-47
2021/08/09 02:08:36;;;;;;;;;2.25;2.00;;;;;22.69;43.85;101037.84;5058436;28;45213;-49
2021/08/09 02:11:29;;;;;;;;;1.00;1.00;;;;;22.69;44.02;101048.41;5057805;28;46689;-52
2021/08/09 02:13:59;;;;;;;;;1.00;1.00;;;;;22.68;43.83;101041.44;5051650;28;45261;-46
2021/08/09 02:16:58;;;;;;;;;2.50;1.50;;;;;22.68;44.20;101049.34;5039580;28;45421;-46
2021/08/09 02:19:33;;;;;;;;;1.00;1.00;;;;;22.68;44.08;101046.72;5058181;28;45308;-48
2021/08/09 02:22:09;;;;;;;;;1.25;1.25;;;;;22.66;44.11;101048.59;5057827;28;46288;-47
2021/08/09 02:24:49;;;;;;;;;1.00;1.00;;;;;22.66;44.17;101040.66;5058242;28;45174;-61
2021/08/09 02:27:20;;;;;;;;;1.75;1.75;;;;;22.67;44.14;101040.59;5057754;28;45748;-61
2021/08/09 02:29:49;;;;;;;;;1.75;1.75;;;;;22.67;44.25;101045.00;5057815;28;45258;-53
2021/08/09 02:32:17;;;;;;;;;2.00;0.25;;;;;22.67;44.17;101045.00;5056733;28;46411;-60
2021/08/09 02:34:44;;;;;;;;;2.00;2.00;;;;;22.66;44.17;101040.66;5057603;28;45374;-57
2021/08/09 02:37:09;;;;;;;;;1.50;1.50;;;;;22.65;44.44;101036.34;5057390;28;45387;-53
2021/08/09 02:39:37;;;;;;;;;4.00;1.00;;;;;22.66;44.12;101038.03;5058051;28;45570;-60
2021/08/09 02:42:03;;;;;;;;;3.00;1.25;;;;;22.66;44.21;101038.03;5039130;28;46626;-57
2021/08/09 02:44:29;;;;;;;;;1.00;1.00;;;;;22.65;44.09;101025.78;5057350;28;45366;-57
2021/08/09 02:46:57;;;;;;;;;2.00;2.00;;;;;22.65;44.40;101037.19;5057549;28;45390;-56
2021/08/09 02:49:22;;;;;;;;;1.00;1.00;;;;;22.62;44.29;101037.38;5057610;28;45349;-56
2021/08/09 02:51:49;;;;;;;;;2.00;2.00;;;;;22.64;44.20;101048.69;5056968;28;45401;-57
2021/08/09 02:54:17;;;;;;;;;1.00;1.00;;;;;22.65;43.87;101041.63;5039139;28;45870;-64
2021/08/09 02:56:43;;;;;;;;;4.00;1.00;;;;;22.64;44.19;101037.28;5057164;28;45350;-53
2021/08/09 02:59:09;;;;;;;;;5.50;1.00;;;;;22.64;44.21;101046.06;5057810;28;45247;-60
2021/08/09 03:01:35;;;;;;;;;0.25;0.25;;;;;22.64;44.20;101045.22;5056643;28;53749;-51
2021/08/09 03:04:01;;;;;;;;;2.00;1.25;;;;;22.64;44.28;101047.88;5057064;28;45427;-55
2021/08/09 03:06:28;;;;;;;;;1.00;1.00;;;;;22.63;44.27;101044.34;5057299;28;45402;-53
2021/08/09 03:08:54;;;;;;;;;1.50;1.00;;;;;22.64;44.27;101047.88;5057383;28;45545;-47
2021/08/09 03:11:19;;;;;;;;;1.75;1.00;;;;;22.61;44.28;101046.22;5056856;28;45279;-45
2021/08/09 03:13:47;;;;;;;;;1.25;1.25;;;;;22.63;44.20;101054.91;5056902;28;46462;-61
2021/08/09 03:16:12;;;;;;;;;1.00;1.00;;;;;22.62;44.42;101044.47;5056682;28;45458;-46
2021/08/09 03:18:38;;;;;;;;;1.00;1.00;;;;;22.63;44.35;101048.81;5057531;28;45261;-54
2021/08/09 03:21:03;;;;;;;;;0.75;0.75;;;;;22.61;44.59;101046.22;5056723;28;45539;-51
2021/08/09 03:23:29;;;;;;;;;2.00;0.00;;;;;22.60;44.46;101048.97;5056609;28;45433;-53
2021/08/09 03:25:54;;;;;;;;;3.00;1.00;;;;;22.62;44.15;101049.75;5056906;28;45471;-45
2021/08/09 03:28:19;;;;;;;;;1.25;1.25;;;;;22.58;44.26;101056.16;5056795;28;45625;-51
2021/08/09 03:30:45;;;;;;;;;1.25;1.25;;;;;22.61;44.34;101058.59;5056470;28;46343;-48
2021/08/09 03:33:10;;;;;;;;;1.00;1.00;;;;;22.59;44.37;101058.72;5056835;28;45260;-48
2021/08/09 03:35:35;;;;;;;;;2.00;2.00;;;;;22.60;44.37;101054.25;5056634;28;45398;-47
2021/08/09 03:38:00;;;;;;;;;1.00;1.00;;;;;22.59;44.35;101056.06;5056882;28;45491;-53
2021/08/09 03:40:26;;;;;;;;;2.00;1.00;;;;;22.59;44.48;101061.34;5056366;28;45378;-48
2021/08/09 03:42:53;;;;;;;;;2.50;2.50;;;;;22.60;44.47;101062.19;5056309;28;45333;-49
2021/08/09 03:45:18;;;;;;;;;2.75;2.00;;;;;22.59;44.39;101057.84;5056729;28;45361;-48
2021/08/09 03:47:44;;;;;;;;;3.00;1.00;;;;;22.59;44.45;101057.84;5056778;28;45374;-49
2021/08/09 03:50:09;;;;;;;;;2.50;1.75;;;;;22.58;44.24;101050.84;5056202;28;57395;-55
2021/08/09 03:52:35;;;;;;;;;3.50;2.00;;;;;22.59;44.63;101055.19;5056344;28;45243;-48
2021/08/09 03:55:00;;;;;;;;;2.00;2.00;;;;;22.60;44.48;101056.91;5056366;28;45153;-47
2021/08/09 03:57:26;;;;;;;;;1.25;1.25;;;;;22.58;44.52;101064.94;5056486;28;45271;-49
2021/08/09 03:59:51;;;;;;;;;3.00;1.25;;;;;22.57;44.66;101055.31;5056202;28;45416;-55
2021/08/09 04:02:18;;;;;;;;;1.75;1.25;;;;;22.57;44.62;101051.81;5056234;28;45413;-49
2021/08/09 04:04:43;;;;;;;;;3.00;1.25;;;;;22.57;44.57;101055.31;5056790;28;45301;-52
2021/08/09 04:07:09;;;;;;;;;5.00;3.25;;;;;22.56;44.50;101053.59;5056917;28;45534;-51
2021/08/09 04:09:34;;;;;;;;;3.00;1.50;;;;;22.56;44.69;101066.81;5055995;28;45310;-54
2021/08/09 04:11:59;;;;;;;;;2.00;1.00;;;;;22.56;44.62;101069.44;5056241;28;45458;-59
2021/08/09 04:14:25;;;;;;;;;1.00;1.00;;;;;22.54;44.60;101064.25;5056235;28;45396;-57
2021/08/09 04:16:50;;;;;;;;;2.00;2.00;;;;;22.55;44.42;101076.50;5055977;28;45375;-52
2021/08/09 04:19:15;;;;;;;;;2.00;2.00;;;;;22.53;44.71;101070.50;5055972;28;45442;-50
2021/08/09 04:21:41;;;;;;;;;2.00;1.00;;;;;22.53;44.61;101074.91;5038255;28;45367;-53
2021/08/09 04:24:06;;;;;;;;;2.00;2.00;;;;;22.53;44.58;101085.47;5056202;28;45331;-51
2021/08/09 04:26:32;;;;;;;;;1.75;1.75;;;;;22.52;44.72;101082.00;5056255;28;45319;-55
2021/08/09 04:28:57;;;;;;;;;1.25;1.25;;;;;22.49;44.67;101084.81;5055818;28;46944;-51
2021/08/09 04:31:23;;;;;;;;;2.00;2.00;;;;;22.51;44.73;101101.44;5055941;28;45308;-48
2021/08/09 04:33:50;;;;;;;;;2.75;2.00;;;;;22.52;44.61;101099.63;5055972;28;45302;-48
2021/08/09 04:36:17;;;;;;;;;2.00;1.00;;;;;22.51;44.91;101103.19;5056379;28;45470;-45
2021/08/09 04:38:42;;;;;;;;;2.00;1.00;;;;;22.51;44.72;101109.34;5056003;28;46757;-56
2021/08/09 04:41:10;;;;;;;;;1.00;1.00;;;;;22.51;44.79;101108.47;5055653;28;45343;-58
2021/08/09 04:43:37;;;;;;;;;3.25;2.75;;;;;22.49;44.75;101103.31;5055905;28;45423;-61
2021/08/09 04:46:05;;;;;;;;;1.75;1.75;;;;;22.51;44.88;101104.06;5055984;28;45264;-57
2021/08/09 04:48:31;;;;;;;;;1.00;1.00;;;;;22.50;44.76;101104.16;5055643;28;46182;-64
2021/08/09 04:50:57;;;;;;;;;1.00;1.00;;;;;22.47;44.52;101102.53;5055685;28;45202;-55
2021/08/09 04:53:23;;;;;;;;;1.00;1.00;;;;;22.51;44.78;101111.13;5055673;28;45358;-58
2021/08/09 04:55:48;;;;;;;;;2.00;1.50;;;;;22.48;44.93;101098.97;5059142;28;45316;-52
2021/08/09 04:58:13;;;;;;;;;3.50;2.00;;;;;22.49;44.84;101103.31;5059237;28;46483;-55
2021/08/09 05:00:39;;;;;;;;;2.00;2.00;;;;;22.48;44.82;101098.97;5059049;28;45356;-48
2021/08/09 05:03:04;;;;;;;;;3.00;2.00;;;;;22.48;44.89;101101.59;5059113;28;45365;-50
2021/08/09 05:05:29;;;;;;;;;3.00;2.00;;;;;22.49;44.92;101107.75;5059206;28;45590;-52
2021/08/09 05:07:55;;;;;;;;;2.25;1.00;;;;;22.48;45.07;101104.25;5058665;28;45416;-60
2021/08/09 05:10:25;;;;;;;;;3.00;3.00;;;;;22.47;44.80;101102.53;5058880;28;45332;-47
2021/08/09 05:12:52;;;;;;;;;3.00;2.00;;;;;22.48;44.90;101103.41;5058937;28;45194;-53
2021/08/09 05:15:20;;;;;;;;;2.00;2.00;;;;;22.47;44.84;101113.09;5058881;28;45573;-50
2021/08/09 05:17:45;;;;;;;;;2.00;2.00;;;;;22.46;44.82;101116.69;5058929;28;46366;-52
2021/08/09 05:20:11;;;;;;;;;4.00;1.00;;;;;22.46;44.70;101127.25;5058655;28;45378;-58
2021/08/09 05:22:36;;;;;;;;;1.50;1.50;;;;;22.46;45.09;101121.13;5058673;28;45421;-54
2021/08/09 05:25:09;;;;;;;;;1.00;0.50;;;;;22.46;45.14;101121.97;5058905;28;45617;-53
2021/08/09 05:27:35;;;;;;;;;1.25;1.25;;;;;22.46;45.27;101115.84;5058337;28;46118;-54
2021/08/09 05:30:00;;;;;;;;;2.00;2.00;;;;;22.46;44.95;101107.94;5058512;28;45430;-45
2021/08/09 05:32:26;;;;;;;;;2.00;0.25;;;;;22.45;45.14;101101.78;5058602;28;45575;-46
2021/08/09 05:34:51;;;;;;;;;3.25;1.25;;;;;22.45;45.13;101107.06;5058722;28;45544;-48
2021/08/09 05:37:17;;;;;;;;;3.00;3.00;;;;;22.46;45.11;101106.13;5058552;28;46495;-47
2021/08/09 05:39:42;;;;;;;;;2.75;2.00;;;;;22.46;45.15;101100.00;5058447;28;45290;-56
2021/08/09 05:42:08;;;;;;;;;3.00;2.00;;;;;22.46;45.48;101097.38;5058577;28;45422;-52
2021/08/09 05:44:33;;;;;;;;;8.00;2.00;;;;;22.46;45.16;101105.28;5058544;28;45498;-48
2021/08/09 05:46:59;;;;;;;;;1.25;1.25;;;;;22.47;45.21;101112.28;5058169;28;46248;-56
2021/08/09 05:49:24;;;;;;;;;3.00;2.00;;;;;22.46;45.28;101110.56;5058198;28;45331;-53
2021/08/09 05:51:49;;;;;;;;;1.00;1.00;;;;;22.46;45.10;101113.22;5040184;28;45343;-46
2021/08/09 05:54:15;;;;;;;;;1.00;1.00;;;;;22.45;45.37;101114.97;5058811;28;45605;-56
2021/08/09 05:56:40;;;;;;;;;1.00;1.00;;;;;22.46;45.22;101116.69;5057617;28;56722;-53
2021/08/09 05:59:05;;;;;;;;;1.50;1.00;;;;;22.45;45.42;101114.16;5040024;28;45257;-55
2021/08/09 06:01:31;;;;;;;;;2.25;2.00;;;;;22.45;45.21;101109.69;5058189;28;45319;-46
2021/08/09 06:03:57;;;;;;;;;2.75;1.25;;;;;22.46;45.42;101114.03;5058417;28;45559;-47
2021/08/09 06:06:22;;;;;;;;;3.25;2.50;;;;;22.46;45.36;101119.31;5056541;28;46216;-51
2021/08/09 06:08:48;;;;;;;;;2.25;2.25;;;;;22.46;45.34;101129.91;5058201;28;45422;-54
2021/08/09 06:11:14;;;;;;;;;2.00;2.00;;;;;22.45;45.34;101132.63;5057953;28;45268;-51
2021/08/09 06:13:39;;;;;;;;;2.00;2.00;;;;;22.46;45.47;101132.53;5058273;28;45227;-49
2021/08/09 06:16:05;;;;;;;;;4.00;2.25;;;;;22.46;45.42;101131.69;5057596;28;46272;-54
2021/08/09 06:18:35;;;;;;;;;2.00;1.00;;;;;22.48;45.33;101132.47;5057613;28;45386;-45
2021/08/09 06:21:02;;;;;;;;;1.50;1.50;;;;;22.43;45.41;101124.81;5057787;28;45245;-61
2021/08/09 06:23:27;;;;;;;;;3.00;1.00;;;;;22.46;45.56;101134.34;5058026;28;45248;-48
2021/08/09 06:25:54;;;;;;;;;3.25;2.00;;;;;22.47;45.47;101139.53;5039625;28;48066;-49
2021/08/09 06:28:20;;;;;;;;;1.75;1.50;;;;;22.47;45.41;101136.03;5057847;28;45792;-45
2021/08/09 06:30:45;;;;;;;;;4.00;3.00;;;;;22.48;45.38;101137.75;5057937;28;45704;-53
2021/08/09 06:33:10;;;;;;;;;2.00;2.00;;;;;22.46;45.35;101136.97;5057600;28;45812;-48
2021/08/09 06:35:36;;;;;;;;;1.75;1.75;;;;;22.47;45.47;101138.69;5057305;28;46156;-60
2021/08/09 06:38:05;;;;;;;;;1.00;1.00;;;;;22.47;45.59;101150.09;5057526;28;45401;-54
2021/08/09 06:40:32;;;;;;;;;2.00;2.00;;;;;22.46;45.64;101147.53;5057494;28;45224;-60
2021/08/09 06:42:57;;;;;;;;;5.50;4.25;;;;;22.45;45.68;101151.97;5057786;28;45352;-64
2021/08/09 06:45:23;;;;;;;;;2.00;2.00;;;;;22.45;45.74;101157.25;5057370;28;45337;-53
2021/08/09 06:47:48;;;;;;;;;3.00;1.25;;;;;22.46;45.73;101153.66;5039515;28;45337;-57
2021/08/09 06:50:13;;;;;;;;;2.00;1.50;;;;;22.45;45.75;101159.88;5057415;28;45315;-46
2021/08/09 06:52:39;;;;;;;;;3.25;2.75;;;;;22.46;45.60;101158.09;5057534;28;45225;-46
2021/08/09 06:55:06;;;;;;;;;1.75;1.75;;;;;22.47;45.98;101160.66;5038981;28;46600;-55
2021/08/09 06:57:31;;;;;;;;;1.50;1.50;;;;;22.48;45.61;101166.81;5056857;28;45493;-52
2021/08/09 06:59:57;;;;;;;;;2.25;2.25;;;;;22.47;45.76;101159.81;5057361;28;45897;-45
2021/08/09 07:02:22;;;;;;;;;3.50;2.25;;;;;22.45;45.82;101157.25;5057360;28;45262;-49
2021/08/09 07:04:47;;;;;;;;;2.00;2.00;;;;;22.46;45.99;101156.31;5057156;28;47114;-45
2021/08/09 07:07:13;;;;;;;;;3.00;2.00;;;;;22.47;46.18;101165.94;5056974;28;45379;-49
2021/08/09 07:09:38;;;;;;;;;1.00;1.00;;;;;22.46;46.03;101163.38;5057072;28;45438;-46
2021/08/09 07:12:03;;;;;;;;;3.25;2.00;;;;;22.45;46.08;101162.53;5056895;28;45498;-46
2021/08/09 07:14:29;;;;;;;;;2.00;2.00;;;;;22.45;46.16;101156.41;5056806;28;45531;-49
2021/08/09 07:16:55;;;;;;;;;2.00;2.00;;;;;22.45;46.01;101165.16;5056032;28;45383;-46
2021/08/09 07:19:20;;;;;;;;;2.00;2.00;;;;;22.45;46.16;101167.81;5057198;28;45330;-45
2021/08/09 07:21:46;;;;;;;;;4.00;2.00;;;;;22.45;46.22;101165.16;5057103;28;45309;-44
2021/08/09 07:24:11;;;;;;;;;4.75;2.00;;;;;22.44;46.38;101165.25;5056613;28;45388;-44
2021/08/09 07:26:36;;;;;;;;;1.50;1.25;;;;;22.43;46.25;101164.44;5056667;28;45296;-49
2021/08/09 07:29:02;;;;;;;;;1.75;1.75;;;;;22.44;46.49;101170.53;5056857;28;45251;-52
2021/08/09 07:31:27;;;;;;;;;2.75;2.75;;;;;22.44;46.51;101171.38;5056843;28;45567;-48
2021/08/09 07:33:52;;;;;;;;;3.00;3.00;;;;;22.45;46.40;101169.63;5038576;28;53254;-47
2021/08/09 07:36:18;;;;;;;;;3.25;2.00;;;;;22.44;46.54;101174.03;5056437;28;45347;-54
2021/08/09 07:38:43;;;;;;;;;3.75;1.75;;;;;22.44;46.63;101175.84;5056711;28;45249;-55
2021/08/09 07:41:10;;;;;;;;;2.00;2.00;;;;;22.46;46.74;101177.44;5056835;28;45245;-55
2021/08/09 07:43:36;;;;;;;;;1.00;1.00;;;;;22.46;46.50;101174.78;5056380;28;46254;-51
2021/08/09 07:46:01;;;;;;;;;2.00;2.00;;;;;22.48;46.71;101172.91;5056311;28;45261;-49
2021/08/09 07:48:26;;;;;;;;;2.00;2.00;;;;;22.49;46.86;101179.91;5056510;28;45312;-53
2021/08/09 07:50:52;;;;;;;;;2.25;2.00;;;;;22.51;46.57;101182.44;5056919;28;45637;-60
2021/08/09 07:53:17;;;;;;;;;3.25;3.00;;;;;22.51;46.76;101177.16;5038251;28;46797;-56
2021/08/09 07:55:42;;;;;;;;;4.75;4.00;;;;;22.52;46.72;101181.50;5056161;28;45461;-47
2021/08/09 07:58:08;;;;;;;;;4.00;2.25;;;;;22.52;46.79;101178.88;5038172;28;45376;-54
2021/08/09 08:00:33;;;;;;;;;4.75;4.00;;;;;22.51;47.01;101177.16;5038592;28;45577;-48
2021/08/09 08:03:00;;;;;;;;;3.00;2.00;;;;;22.52;47.00;101171.81;5056087;28;45389;-47
2021/08/09 08:05:25;;;;;;;;;4.25;2.00;;;;;22.53;47.01;101175.28;5056289;28;45740;-51
2021/08/09 08:07:51;;;;;;;;;3.00;2.00;;;;;22.53;47.03;101175.28;5038498;28;45331;-49
2021/08/09 08:10:16;;;;;;;;;4.50;3.00;;;;;22.52;46.95;101177.09;5056416;28;45234;-50
2021/08/09 08:12:41;;;;;;;;;2.50;2.00;;;;;22.54;47.06;101190.19;5055979;28;45404;-58
2021/08/09 08:15:07;;;;;;;;;2.25;2.00;;;;;22.54;46.94;101182.28;5055985;28;45315;-45
2021/08/09 08:17:33;;;;;;;;;3.50;3.00;;;;;22.54;47.04;101188.41;5055993;28;45516;-49
2021/08/09 08:19:59;;;;;;;;;7.00;3.75;;;;;22.53;47.14;101181.44;5056323;28;45479;-60
2021/08/09 08:22:24;;;;;;;;;2.25;2.00;;;;;22.54;47.04;101182.28;5056177;28;45289;-59
2021/08/09 08:24:49;;;;;;;;;2.75;2.00;;;;;22.54;47.15;101183.13;5055993;28;45361;-59
2021/08/09 08:27:15;;;;;;;;;3.25;3.25;;;;;22.55;46.92;101184.81;5056132;28;45935;-58
2021/08/09 08:29:40;;;;;;;;;4.00;4.00;;;;;22.55;47.29;101184.81;5058029;28;45547;-56
2021/08/09 08:32:06;;;;;;;;;3.25;3.00;;;;;;;;5059230;28;46849;-63
2021/08/09 08:34:31;;;;;;;;;3.00;3.00;;;;;22.56;47.32;101190.97;5059097;28;45416;-56
2021/08/09 08:36:57;;;;;;;;;5.50;3.00;;;;;22.57;47.22;101191.81;5059465;28;45295;-49
2021/08/09 08:39:22;;;;;;;;;2.00;2.00;;;;;22.58;47.04;101193.50;5059999;28;45328;-51
2021/08/09 08:41:47;;;;;;;;;4.00;4.00;;;;;22.59;47.32;101189.94;5059170;28;46432;-52
2021/08/09 08:44:18;;;;;;;;;4.00;3.00;;;;;22.59;47.26;101184.66;5041299;28;45321;-44
2021/08/09 08:46:44;;;;;;;;;2.00;1.75;;;;;22.62;47.36;101197.69;5059322;28;45253;-45
2021/08/09 08:49:13;;;;;;;;;3.75;3.75;;;;;22.63;47.05;101180.91;5059545;28;45513;-57
2021/08/09 08:51:41;;;;;;;;;1.75;1.75;;;;;22.64;47.28;101187.88;5059044;28;47279;-51
2021/08/09 08:54:06;;;;;;;;;4.50;4.00;;;;;22.64;47.16;101198.44;5059147;28;45294;-45
2021/08/09 08:56:35;;;;;;;;;3.50;2.00;;;;;22.66;47.13;101201.81;5059105;28;45256;-52
2021/08/09 08:59:01;;;;;;;;;2.25;2.25;;;;;22.66;47.29;101188.63;5059335;28;45344;-48
2021/08/09 09:01:33;;;;;;;;;4.75;4.00;;;;;22.69;47.28;101204.28;5059190;28;45568;-56
2021/08/09 09:03:58;;;;;;;;;3.50;3.50;;;;;22.67;47.15;101203.53;5059054;28;45347;-57
2021/08/09 09:06:24;;;;;;;;;4.00;4.00;;;;;22.72;47.39;101205.91;5059249;28;45289;-47
2021/08/09 09:08:49;;;;;;;;;2.00;2.00;;;;;22.71;47.39;101199.78;5059216;28;45217;-46
2021/08/09 09:11:23;;;;;;;;;3.25;2.50;;;;;22.73;47.22;101207.59;5058613;28;45414;-53
2021/08/09 09:14:01;;;;;;;;;2.50;2.50;;;;;22.75;47.22;101213.66;5058709;28;45802;-46
2021/08/09 09:16:43;;;;;;;;;2.00;2.00;;;;;22.76;47.28;101215.34;5058938;28;45414;-53
2021/08/09 09:19:09;;;;;;;;;3.75;2.00;;;;;22.76;47.32;101218.88;5058970;28;45351;-51
2021/08/09 09:21:41;;;;;;;;;3.50;3.50;;;;;22.77;47.20;101217.91;5058604;28;45324;-45
2021/08/09 09:24:15;;;;;;;;;3.75;3.00;;;;;22.80;47.46;101225.66;5058514;28;45782;-55
2021/08/09 09:26:44;;;;;;;;;6.50;3.00;;;;;22.81;47.10;101229.16;5058536;28;45227;-54
2021/08/09 09:29:09;;;;;;;;;2.75;2.75;;;;;22.82;47.32;101230.88;5059100;28;45479;-50
2021/08/09 09:31:35;;;;;;;;;5.00;4.00;;;;;22.84;46.95;101236.88;5040458;28;47229;-44
2021/08/09 09:34:04;;;;;;;;;3.25;3.00;;;;;22.85;47.33;101234.19;5058461;28;45428;-48
2021/08/09 09:36:45;;;;;;;;;5.00;3.00;;;;;22.84;47.22;101226.31;5058534;28;45284;-49
2021/08/09 09:39:27;;;;;;;;;3.50;3.25;;;;;22.88;47.07;101240.19;5058597;28;45414;-50
2021/08/09 09:41:54;;;;;;;;;2.00;2.00;;;;;22.85;47.15;101235.94;5040123;28;47134;-52
2021/08/09 09:44:24;;;;;;;;;4.00;3.00;;;;;22.85;46.94;101236.81;5058408;28;45265;-49
2021/08/09 09:46:50;;;;;;;;;4.25;3.00;;;;;22.85;47.01;101239.47;5058367;28;45236;-47
2021/08/09 09:49:32;;;;;;;;;2.50;2.50;;;;;22.84;47.17;101239.53;5058399;28;45500;-45
2021/08/09 09:51:57;;;;;;;;;2.75;2.75;;;;;22.85;47.03;101239.47;5058376;28;45463;-50
2021/08/09 09:54:23;;;;;;;;;3.00;3.00;;;;;22.85;47.05;101242.09;5058090;28;45336;-51
2021/08/09 09:56:50;;;;;;;;;2.25;2.25;;;;;22.87;47.10;101243.81;5058212;28;45397;-50
2021/08/09 09:59:16;;;;;;;;;5.00;3.00;;;;;22.87;46.88;101251.75;5040263;28;45512;-50
2021/08/09 10:01:42;;;;;;;;;3.50;3.00;;;;;22.88;47.17;101253.41;5057896;28;45591;-47
2021/08/09 10:04:07;;;;;;;;;3.75;2.00;;;;;22.89;46.94;101245.41;5039461;28;45241;-53
2021/08/09 10:06:35;;;;;;;;;3.00;3.00;;;;;22.90;47.33;101246.25;5057981;28;45443;-50
2021/08/09 10:09:01;;;;;;;;;3.00;3.00;;;;;22.92;46.69;101249.66;5058637;28;45664;-50
2021/08/09 10:11:29;;;;;;;;;2.75;2.75;;;;;22.90;47.11;101241.84;5058142;28;45453;-50
2021/08/09 10:13:56;;;;;;;;;6.00;2.75;;;;;22.90;47.00;101247.13;5057824;28;45831;-49
2021/08/09 10:16:31;;;;;;;;;3.50;2.25;;;;;22.90;46.88;101243.59;5057782;28;45425;-50
2021/08/09 10:18:59;;;;;;;;;6.25;3.75;;;;;22.91;47.27;101247.97;5040103;28;45273;-47
2021/08/09 10:21:30;;;;;;;;;3.75;3.75;;;;;22.91;47.37;101243.53;5057687;28;46556;-62
2021/08/09 10:23:55;;;;;;;;;3.00;3.00;;;;;22.92;47.20;101239.94;5057872;28;45240;-59
2021/08/09 10:26:20;;;;;;;;;3.00;3.00;;;;;22.93;47.00;101240.78;5056438;28;45478;-52
2021/08/09 10:28:52;;;;;;;;;3.00;3.00;;;;;22.93;47.00;101235.50;5057985;28;45400;-48
2021/08/09 10:31:26;;;;;;;;;2.75;2.75;;;;;22.92;47.06;101237.31;5057175;28;46633;-46
2021/08/09 10:33:52;;;;;;;;;4.00;3.00;;;;;22.94;46.85;101234.56;5057561;28;45805;-44
2021/08/09 10:36:22;;;;;;;;;3.00;3.00;;;;;22.96;46.95;101232.69;5057323;28;45339;-45
2021/08/09 10:38:52;;;;;;;;;2.25;2.00;;;;;22.97;46.85;101229.09;5057896;28;45623;-45
2021/08/09 10:41:33;;;;;;;;;2.50;2.50;;;;;22.97;46.76;101215.88;5057227;28;46835;-47
2021/08/09 10:44:04;;;;;;;;;3.75;2.00;;;;;22.99;46.76;101236.00;5057665;28;45411;-45
2021/08/09 10:46:36;;;;;;;;;2.25;2.25;;;;;22.97;46.67;101227.31;5039518;28;45484;-46
2021/08/09 10:49:03;;;;;;;;;5.75;3.00;;;;;23.02;46.81;101229.66;5057908;28;45411;-47
2021/08/09 10:51:53;;;;;;;;;2.00;2.00;;;;;23.04;47.00;101233.06;5056532;28;46652;-57
2021/08/09 10:54:30;;;;;;;;;3.00;3.00;;;;;23.04;46.91;101226.94;5057203;28;45274;-60
2021/08/09 10:56:57;;;;;;;;;4.00;2.25;;;;;23.02;46.60;101224.38;5057180;28;45328;-53
2021/08/09 10:59:40;;;;;;;;;5.00;4.25;;;;;23.05;46.63;101223.34;5057649;28;45562;-53
2021/08/09 11:02:14;;;;;;;;;4.25;3.75;;;;;23.05;46.91;101223.34;5057067;28;46286;-50
2021/08/09 11:04:40;;;;;;;;;5.25;3.75;;;;;23.02;46.75;101229.66;5056973;28;45197;-48
2021/08/09 11:07:16;;;;;;;;;3.00;2.00;;;;;23.01;46.79;101231.47;5057136;28;45325;-51
2021/08/09 11:09:43;;;;;;;;;6.25;3.00;;;;;23.03;46.62;101230.53;5057439;28;45558;-51
2021/08/09 11:12:13;;;;;;;;;2.00;2.00;;;;;23.03;46.67;101234.00;5056860;28;45491;-60
2021/08/09 11:15:00;;;;;;;;;3.50;3.00;;;;;23.05;46.87;101226.84;5056821;28;45296;-54
2021/08/09 11:17:26;;;;;;;;;6.00;3.00;;;;;23.05;46.74;101232.13;5057052;28;45417;-61
2021/08/09 11:19:52;;;;;;;;;2.75;2.75;;;;;23.06;46.73;101223.25;5057174;28;45538;-49
2021/08/09 11:22:18;;;;;;;;;6.00;4.00;;;;;23.07;46.51;101219.69;5056498;28;45430;-46
2021/08/09 11:24:43;;;;;;;;;3.75;2.25;;;;;23.08;46.40;101223.16;5056884;28;45333;-45
2021/08/09 11:27:09;;;;;;;;;2.00;2.00;;;;;23.07;46.62;101216.16;5056805;28;45521;-47